createdAt,value
2023-04-18T00:00:24.600Z,100539.98
2023-04-18T00:03:05.095Z,100541.50
2023-04-18T00:05:41.681Z,100536.43
2023-04-18T00:11:43.071Z,100538.64
2023-04-18T00:19:06.387Z,100539.15
2023-04-18T00:31:21.650Z,100543.67
2023-04-18T00:34:34.606Z,100542.34
2023-04-18T00:37:25.698Z,100540.30
2023-04-18T00:40:02.492Z,100541.34
2023-04-18T00:42:42.552Z,100543.67
2023-04-18T00:45:48.645Z,100539.37
2023-04-18T00:48:43.019Z,100539.39
2023-04-18T00:51:48.565Z,100536.38
2023-04-18T00:54:26.772Z,100536.38
2023-04-18T00:57:16.636Z,100531.95
2023-04-18T00:59:52.319Z,100530.80
2023-04-18T01:02:32.334Z,100526.92
2023-04-18T01:05:09.995Z,100519.41
2023-04-18T01:07:48.570Z,100516.29
2023-04-18T01:11:15.715Z,100500.41
2023-04-18T01:14:01.574Z,100524.23
2023-04-18T01:16:44.801Z,100521.68
2023-04-18T01:19:26.033Z,100520.41
2023-04-18T01:21:57.107Z,100517.00
2023-04-18T01:24:52.162Z,100515.55
2023-04-18T01:30:40.988Z,100521.59
2023-04-18T01:33:29.287Z,100515.65
2023-04-18T01:36:16.181Z,100511.92
2023-04-18T01:38:50.623Z,100509.42
2023-04-18T01:41:41.133Z,100513.27
2023-04-18T01:44:17.901Z,100513.58
2023-04-18T01:46:50.089Z,100506.16
2023-04-18T01:50:24.063Z,100507.97
2023-04-18T01:53:02.736Z,100507.57
2023-04-18T01:56:02.449Z,100505.61
2023-04-18T01:59:01.166Z,100499.45
2023-04-18T02:13:44.527Z,100492.80
2023-04-18T02:16:30.499Z,100491.20
2023-04-18T02:19:04.230Z,100485.75
2023-04-18T02:21:56.711Z,100487.25
2023-04-18T02:24:46.746Z,100484.77
2023-04-18T02:27:48.012Z,100486.05
2023-04-18T02:30:24.626Z,100487.42
2023-04-18T02:34:14.418Z,100489.26
2023-04-18T02:36:51.916Z,100486.67
2023-04-18T02:39:32.997Z,100486.75
2023-04-18T02:42:21.562Z,100486.58
2023-04-18T02:45:02.017Z,100487.73
2023-04-18T02:48:04.898Z,100489.39
2023-04-18T02:50:44.139Z,100486.37
2023-04-18T02:56:47.610Z,100484.29
2023-04-18T02:59:41.424Z,100480.30
2023-04-18T03:02:32.716Z,100479.36
2023-04-18T03:05:47.626Z,100477.66
2023-04-18T03:08:51.035Z,100473.11
2023-04-18T03:11:39.377Z,100473.59
2023-04-18T03:15:35.482Z,100474.79
2023-04-18T03:18:21.797Z,100472.20
2023-04-18T03:21:40.979Z,100481.64
2023-04-18T09:44:22.659Z,100463.41
2023-04-18T09:51:23.229Z,100463.70
2023-04-18T09:55:06.899Z,100462.48
2023-04-18T09:58:31.856Z,100461.73
2023-04-18T10:01:12.890Z,100454.66
2023-04-18T10:03:50.018Z,100460.23
2023-04-18T10:06:49.756Z,100461.52
2023-04-18T10:09:44.292Z,100458.14
2023-04-18T10:12:24.461Z,100456.92
2023-04-18T10:15:01.579Z,100456.04
2023-04-18T10:18:08.525Z,100450.95
2023-04-18T10:20:49.391Z,100448.05
2023-04-18T10:24:13.148Z,100447.95
2023-04-18T10:27:18.607Z,100445.13
2023-04-18T10:30:09.226Z,100449.95
2023-04-18T10:41:40.257Z,100443.24
2023-04-18T10:45:03.117Z,100439.05
2023-04-18T10:52:27.449Z,100441.77
2023-04-18T10:55:19.794Z,100441.46
2023-04-18T10:57:51.151Z,100433.20
2023-04-18T11:00:27.817Z,100428.09
2023-04-18T11:03:42.075Z,100429.64
2023-04-18T11:06:47.952Z,100429.27
2023-04-18T11:09:24.034Z,100426.75
2023-04-18T11:12:17.504Z,100425.69
2023-04-18T11:15:23.485Z,100422.48
2023-04-18T11:18:07.066Z,100411.69
2023-04-18T11:21:10.321Z,100417.58
2023-04-18T11:23:46.562Z,100414.95
2023-04-18T11:26:23.290Z,100414.89
2023-04-18T11:29:08.858Z,100414.87
2023-04-18T11:31:41.351Z,100408.27
2023-04-18T11:34:31.802Z,100409.86
2023-04-18T11:38:11.192Z,100407.22
2023-04-18T11:40:59.425Z,100404.52
2023-04-18T11:43:52.949Z,100405.12
2023-04-18T11:46:43.283Z,100399.80
2023-04-18T11:50:01.424Z,100393.03
2023-04-18T11:52:57.224Z,100399.08
2023-04-18T18:48:23.705Z,100197.20
2023-04-18T18:56:11.466Z,100188.10
2023-04-18T18:59:06.182Z,100189.39
2023-04-18T19:05:38.058Z,100184.23
2023-04-18T19:09:19.431Z,100181.86
2023-04-18T19:12:40.137Z,100180.19
2023-04-18T19:15:31.457Z,100177.21
2023-04-18T19:18:29.227Z,100171.58
2023-04-18T19:21:56.249Z,100167.64
2023-04-18T19:29:37.244Z,100163.27
2023-04-18T19:37:23.540Z,100157.43
2023-04-18T19:40:23.558Z,100164.34
2023-04-18T19:43:19.960Z,100158.35
2023-04-18T19:46:39.855Z,100156.91
2023-04-18T19:49:57.992Z,100157.82
2023-04-18T19:53:33.548Z,100152.92
2023-04-18T19:56:31.534Z,100144.58
2023-04-18T20:03:24.989Z,100140.11
2023-04-18T20:07:00.298Z,100141.32
2023-04-18T20:09:38.165Z,100138.89
2023-04-18T20:13:32.516Z,100136.35
2023-04-18T20:16:32.442Z,100130.64
2023-04-18T20:19:18.098Z,100131.85
2023-04-18T20:21:50.073Z,100127.47
2023-04-18T20:24:44.456Z,100130.45
2023-04-18T20:27:38.581Z,100127.55
2023-04-18T20:30:33.569Z,100130.05
2023-04-18T20:33:47.525Z,100125.69
2023-04-18T20:36:44.879Z,100120.33
2023-04-18T20:39:21.964Z,100122.86
2023-04-18T20:42:00.543Z,100125.83
2023-04-18T20:45:03.331Z,100121.73
2023-04-18T20:47:51.810Z,100119.73
2023-04-18T20:50:31.776Z,100115.68
2023-04-18T20:54:20.033Z,100115.02
2023-04-18T20:57:02.058Z,100104.54
2023-04-18T21:00:02.393Z,100110.80
2023-04-18T21:02:49.944Z,100104.90
2023-04-18T21:05:41.215Z,100108.63
2023-04-18T21:09:00.424Z,100107.84
2023-04-18T21:11:36.743Z,100102.89
2023-04-18T21:14:32.552Z,100098.97
2023-04-18T21:17:06.674Z,100105.42
2023-04-18T21:20:17.160Z,100103.91
2023-04-18T21:23:15.115Z,100101.27
2023-04-18T21:25:51.109Z,100102.05
2023-04-18T21:28:30.583Z,100108.19
2023-04-18T21:31:05.227Z,100111.83
2023-04-18T21:33:46.583Z,100110.73
2023-04-18T21:36:40.585Z,100110.46
2023-04-18T21:39:18.908Z,100108.85
2023-04-18T21:41:54.420Z,100106.65
2023-04-18T21:44:49.600Z,100109.89
2023-04-18T21:47:26.281Z,100102.11
2023-04-18T21:50:09.723Z,100105.27
2023-04-18T21:52:49.654Z,100107.90
2023-04-18T21:55:22.579Z,100103.95
2023-04-18T21:58:11.940Z,100103.02
2023-04-18T22:00:49.474Z,100100.27
2023-04-18T22:03:23.932Z,100102.14
2023-04-18T22:06:01.209Z,100101.91
2023-04-18T22:08:36.508Z,100102.08
2023-04-18T22:11:11.863Z,100098.64
2023-04-18T22:14:17.941Z,100099.01
2023-04-18T22:16:53.873Z,100093.83
2023-04-18T22:19:27.952Z,100093.08
2023-04-18T22:23:03.617Z,100095.39
2023-04-18T22:25:59.953Z,100094.28
2023-04-18T22:28:40.261Z,100088.27
2023-04-18T22:31:21.531Z,100088.38
2023-04-18T22:33:53.358Z,100086.89
2023-04-18T22:36:45.089Z,100082.77
2023-04-18T22:39:22.770Z,100084.63
2023-04-18T22:41:55.759Z,100084.34
2023-04-18T22:44:28.161Z,100079.53
2023-04-18T22:47:07.710Z,100082.34
2023-04-18T22:57:58.207Z,100079.92
2023-04-18T23:00:33.361Z,100072.61
2023-04-18T23:03:20.686Z,100072.31
2023-04-18T23:06:01.362Z,100068.28
2023-04-18T23:08:40.953Z,100066.66
2023-04-18T23:11:20.627Z,100064.17
2023-04-18T23:14:00.385Z,100061.84
2023-04-18T23:17:02.146Z,100062.40
2023-04-18T23:19:41.453Z,100061.27
2023-04-18T23:22:20.117Z,100060.68
2023-04-18T23:24:52.330Z,100053.04
2023-04-18T23:27:40.911Z,100051.11
2023-04-18T23:30:42.601Z,100050.50
2023-04-18T23:33:32.664Z,100050.11
2023-04-18T23:36:07.047Z,100049.96
2023-04-18T23:39:13.752Z,100047.10
2023-04-18T23:41:55.061Z,100041.79
2023-04-18T23:44:37.437Z,100042.72
2023-04-18T23:47:34.556Z,100043.34
2023-04-18T23:50:13.917Z,100038.95
2023-04-18T23:52:51.658Z,100040.96
2023-04-18T23:55:26.768Z,100037.55
2023-04-18T23:58:05.726Z,100033.95
